createdAt,value
2023-05-23T00:00:17.823Z,6.47
2023-05-23T00:02:51.139Z,6.40
2023-05-23T00:05:24.428Z,6.60
2023-05-23T00:07:57.657Z,6.68
2023-05-23T00:10:30.915Z,6.72
2023-05-23T00:13:09.434Z,6.95
2023-05-23T00:15:43.299Z,6.18
2023-05-23T00:18:17.386Z,6.68
2023-05-23T00:23:25.403Z,6.40
2023-05-23T00:25:58.761Z,6.53
2023-05-23T00:28:33.408Z,6.05
2023-05-23T00:31:06.872Z,5.75
2023-05-23T00:33:40.073Z,6.32
2023-05-23T00:36:13.537Z,6.20
2023-05-23T00:38:46.977Z,7.20
2023-05-23T00:41:21.085Z,6.30
2023-05-23T00:43:55.647Z,6.40
2023-05-23T00:46:29.115Z,5.60
2023-05-23T00:49:02.424Z,6.78
2023-05-23T00:51:36.384Z,6.15
2023-05-23T00:54:10.200Z,6.30
2023-05-23T00:59:21.228Z,6.40
2023-05-23T01:01:57.405Z,6.30
2023-05-23T01:04:34.126Z,6.35
2023-05-23T01:07:07.558Z,5.65
2023-05-23T01:09:40.874Z,6.00
2023-05-23T01:12:21.785Z,6.10
2023-05-23T01:15:06.504Z,5.88
2023-05-23T01:17:47.416Z,6.57
2023-05-23T01:20:23.819Z,5.82
2023-05-23T01:23:17.011Z,6.00
2023-05-23T01:26:08.654Z,5.40
2023-05-23T01:28:47.167Z,6.00
2023-05-23T01:31:23.022Z,5.55
2023-05-23T01:33:57.527Z,4.88
2023-05-23T01:36:35.395Z,5.38
2023-05-23T01:39:08.616Z,5.30
2023-05-23T01:41:41.954Z,5.50
2023-05-23T01:44:17.835Z,5.78
2023-05-23T01:46:52.379Z,5.28
2023-05-23T01:49:25.908Z,6.32
2023-05-23T01:52:00.436Z,6.03
2023-05-23T01:54:35.589Z,5.50
2023-05-23T01:57:09.134Z,5.30
2023-05-23T01:59:43.892Z,5.22
2023-05-23T02:02:17.288Z,5.40
2023-05-23T02:04:50.655Z,5.88
2023-05-23T02:07:24.884Z,5.63
2023-05-23T02:09:58.194Z,5.20
2023-05-23T02:12:31.481Z,5.00
2023-05-23T02:15:07.758Z,4.68
2023-05-23T02:17:41.536Z,5.10
2023-05-23T02:20:15.236Z,4.97
2023-05-23T02:22:48.795Z,5.13
2023-05-23T02:25:22.298Z,5.55
2023-05-23T02:27:55.628Z,5.45
2023-05-23T02:30:30.281Z,6.25
2023-05-23T02:33:06.399Z,5.32
2023-05-23T02:35:39.879Z,5.35
2023-05-23T02:38:13.439Z,5.10
2023-05-23T02:40:50.438Z,5.25
2023-05-23T02:43:24.082Z,5.43
2023-05-23T02:45:59.110Z,5.03
2023-05-23T02:48:32.336Z,4.60
2023-05-23T02:51:05.807Z,5.35
2023-05-23T02:53:39.725Z,5.50
2023-05-23T02:56:13.522Z,4.85
2023-05-23T02:58:46.938Z,4.43
2023-05-23T03:01:21.634Z,4.70
2023-05-23T03:03:54.972Z,4.97
2023-05-23T03:06:28.853Z,4.93
2023-05-23T03:09:02.568Z,4.97
2023-05-23T03:11:35.926Z,5.57
2023-05-23T03:14:09.160Z,4.65
2023-05-23T03:16:43.957Z,4.68
2023-05-23T03:19:17.481Z,4.28
2023-05-23T03:24:26.036Z,4.47
2023-05-23T03:26:59.371Z,4.97
2023-05-23T03:29:32.815Z,4.47
2023-05-23T03:32:08.300Z,5.32
2023-05-23T03:34:41.672Z,4.60
2023-05-23T03:37:15.052Z,4.85
2023-05-23T03:39:48.356Z,4.70
2023-05-23T03:42:21.739Z,4.82
2023-05-23T03:44:55.149Z,4.32
2023-05-23T03:47:30.444Z,4.93
2023-05-23T03:50:05.807Z,5.05
2023-05-23T03:52:39.833Z,4.80
2023-05-23T03:55:13.117Z,4.88
2023-05-23T03:57:46.590Z,5.40
2023-05-23T04:00:20.293Z,4.90
2023-05-23T04:02:58.527Z,4.90
2023-05-23T04:05:32.050Z,4.30
2023-05-23T04:08:06.871Z,4.15
2023-05-23T04:10:40.221Z,4.35
2023-05-23T04:13:13.815Z,4.50
2023-05-23T04:15:48.327Z,4.55
2023-05-23T04:18:23.479Z,4.55
2023-05-23T04:20:57.017Z,4.55
2023-05-23T04:23:30.531Z,4.25
2023-05-23T04:26:05.776Z,4.20
2023-05-23T04:28:43.999Z,4.18
2023-05-23T04:31:17.305Z,4.10
2023-05-23T04:33:52.509Z,4.78
2023-05-23T04:36:26.521Z,4.53
2023-05-23T04:39:01.729Z,4.28
2023-05-23T04:41:40.121Z,4.57
2023-05-23T04:44:26.814Z,4.72
2023-05-23T04:47:16.613Z,4.20
2023-05-23T04:50:18.440Z,3.97
2023-05-23T04:52:52.203Z,3.85
2023-05-23T04:55:25.510Z,4.63
2023-05-23T04:57:59.613Z,4.47
2023-05-23T05:00:32.952Z,4.05
2023-05-23T05:03:09.858Z,4.47
2023-05-23T05:05:47.167Z,4.40
2023-05-23T05:08:21.721Z,3.90
2023-05-23T05:10:55.766Z,4.28
2023-05-23T05:13:29.273Z,4.03
2023-05-23T05:16:03.931Z,4.07
2023-05-23T05:18:37.440Z,4.28
2023-05-23T05:21:12.045Z,3.85
2023-05-23T05:23:45.364Z,4.05
2023-05-23T05:26:21.584Z,4.05
2023-05-23T05:28:56.909Z,3.78
2023-05-23T05:31:30.270Z,4.40
2023-05-23T05:34:03.604Z,4.25
2023-05-23T05:36:38.293Z,3.65
2023-05-23T05:39:11.763Z,4.28
2023-05-23T05:41:45.033Z,3.85
2023-05-23T05:44:18.293Z,4.63
2023-05-23T05:46:52.427Z,4.38
2023-05-23T05:49:25.876Z,4.97
2023-05-23T05:52:00.585Z,5.22
2023-05-23T05:54:33.880Z,5.85
2023-05-23T05:57:07.451Z,4.72
2023-05-23T05:59:40.757Z,5.13
2023-05-23T06:02:14.100Z,6.07
2023-05-23T06:04:47.504Z,5.35
2023-05-23T06:07:22.089Z,7.20
2023-05-23T06:09:55.389Z,5.90
2023-05-23T06:12:28.638Z,5.88
2023-05-23T06:15:02.310Z,6.13
2023-05-23T06:17:35.886Z,6.25
2023-05-23T06:20:10.811Z,5.75
2023-05-23T06:22:48.446Z,6.07
2023-05-23T06:25:21.781Z,5.47
2023-05-23T06:27:55.215Z,5.57
2023-05-23T06:30:29.511Z,5.55
2023-05-23T06:33:03.117Z,5.15
2023-05-23T06:35:36.494Z,5.38
2023-05-23T06:38:11.099Z,5.47
2023-05-23T06:40:44.344Z,5.15
2023-05-23T06:43:17.725Z,5.22
2023-05-23T06:45:53.526Z,4.55
2023-05-23T06:51:00.027Z,4.80
2023-05-23T06:53:34.792Z,5.03
2023-05-23T06:56:08.177Z,4.22
2023-05-23T06:58:51.457Z,4.83
2023-05-23T07:01:24.764Z,4.45
2023-05-23T07:03:58.032Z,4.57
2023-05-23T07:06:31.442Z,4.53
2023-05-23T07:09:06.175Z,3.30
2023-05-23T07:11:41.167Z,4.78
2023-05-23T07:14:17.146Z,3.72
2023-05-23T07:16:52.326Z,4.38
2023-05-23T07:19:26.051Z,4.68
2023-05-23T07:21:59.627Z,3.67
2023-05-23T07:24:34.913Z,4.53
2023-05-23T07:27:08.187Z,3.95
2023-05-23T07:29:44.172Z,4.65
2023-05-23T07:32:17.793Z,4.88
2023-05-23T07:34:52.133Z,4.05
2023-05-23T07:37:27.414Z,3.78
2023-05-23T07:40:02.363Z,3.90
2023-05-23T07:42:36.039Z,4.55
2023-05-23T07:45:10.082Z,3.45
2023-05-23T07:47:45.707Z,3.30
2023-05-23T07:50:19.141Z,4.10
2023-05-23T07:52:52.386Z,4.25
2023-05-23T07:55:32.760Z,3.90
2023-05-23T07:58:06.283Z,3.60
2023-05-23T08:00:41.889Z,3.78
2023-05-23T08:03:25.482Z,4.45
2023-05-23T08:08:43.778Z,3.72
2023-05-23T08:11:18.493Z,3.10
2023-05-23T08:13:57.244Z,3.45
2023-05-23T08:16:47.758Z,4.30
2023-05-23T08:19:26.814Z,4.22
2023-05-23T08:22:00.187Z,3.63
2023-05-23T08:24:34.324Z,3.85
2023-05-23T08:27:09.612Z,3.92
2023-05-23T08:29:44.337Z,3.67
2023-05-23T08:32:17.986Z,4.57
2023-05-23T08:34:51.422Z,3.38
2023-05-23T08:37:25.662Z,4.13
2023-05-23T08:39:59.133Z,3.58
2023-05-23T08:42:53.182Z,3.47
2023-05-23T08:45:29.420Z,3.40
2023-05-23T08:48:03.929Z,3.10
2023-05-23T08:50:43.948Z,3.55
2023-05-23T08:53:20.461Z,3.50
2023-05-23T08:56:02.388Z,3.55
2023-05-23T08:58:45.380Z,3.65
2023-05-23T09:01:20.589Z,3.55
2023-05-23T09:04:00.407Z,3.60
2023-05-23T09:06:36.787Z,3.90
2023-05-23T09:09:10.197Z,4.18
2023-05-23T09:11:46.050Z,3.88
2023-05-23T09:14:22.613Z,3.30
2023-05-23T09:17:04.922Z,3.75
2023-05-23T09:19:43.048Z,4.07
2023-05-23T09:22:27.295Z,3.55
2023-05-23T09:25:09.592Z,3.40
2023-05-23T09:27:47.764Z,3.47
2023-05-23T09:30:23.082Z,3.92
2023-05-23T09:33:05.466Z,2.90
2023-05-23T09:35:46.205Z,3.65
2023-05-23T09:38:20.872Z,3.17
2023-05-23T09:40:58.040Z,3.50
2023-05-23T09:43:31.374Z,3.60
2023-05-23T09:46:10.707Z,3.42
2023-05-23T09:48:48.498Z,3.55
2023-05-23T09:51:23.205Z,3.15
2023-05-23T09:53:57.535Z,3.33
2023-05-23T09:56:31.403Z,3.47
2023-05-23T10:01:45.086Z,3.30
2023-05-23T10:04:22.835Z,3.50
2023-05-23T10:07:02.132Z,3.97
2023-05-23T10:09:39.211Z,4.20
2023-05-23T10:12:44.480Z,3.22
2023-05-23T10:15:19.617Z,3.30
2023-05-23T10:18:11.965Z,3.85
2023-05-23T10:20:50.137Z,3.45
2023-05-23T10:23:23.686Z,3.80
2023-05-23T10:25:56.962Z,3.72
2023-05-23T10:28:30.351Z,3.28
2023-05-23T10:31:04.408Z,3.50
2023-05-23T10:33:44.167Z,3.75
2023-05-23T10:36:23.396Z,3.53
2023-05-23T10:39:05.723Z,3.53
2023-05-23T10:41:46.020Z,3.80
2023-05-23T10:44:24.263Z,3.85
2023-05-23T10:47:01.483Z,3.70
2023-05-23T10:49:46.748Z,3.75
2023-05-23T10:52:20.168Z,4.00
2023-05-23T10:54:55.394Z,3.72
2023-05-23T10:57:29.066Z,3.28
2023-05-23T11:00:02.405Z,3.88
2023-05-23T11:02:36.620Z,3.70
2023-05-23T11:05:28.236Z,3.25
2023-05-23T11:08:09.619Z,3.53
2023-05-23T11:10:54.105Z,4.50
2023-05-23T11:13:27.863Z,3.58
2023-05-23T11:16:01.239Z,3.20
2023-05-23T11:18:37.462Z,3.80
2023-05-23T11:21:12.198Z,3.33
2023-05-23T11:23:45.480Z,3.60
2023-05-23T11:26:31.657Z,3.38
2023-05-23T11:29:10.234Z,3.53
2023-05-23T11:31:43.673Z,3.90
2023-05-23T11:34:17.155Z,3.90
2023-05-23T11:36:56.339Z,3.75
2023-05-23T11:39:29.680Z,3.88
2023-05-23T11:42:03.377Z,3.88
2023-05-23T11:47:10.032Z,3.80
2023-05-23T11:49:46.493Z,4.65
2023-05-23T11:52:21.132Z,3.70
2023-05-23T11:54:55.957Z,4.82
2023-05-23T11:57:31.259Z,3.15
2023-05-23T12:00:05.642Z,3.97
2023-05-23T12:02:41.008Z,4.25
2023-05-23T12:05:15.744Z,3.95
2023-05-23T12:07:51.092Z,3.97
2023-05-23T12:10:29.419Z,3.70
2023-05-23T12:13:02.792Z,4.13
2023-05-23T12:15:36.210Z,4.47
2023-05-23T12:18:09.932Z,3.85
2023-05-23T12:23:21.959Z,3.22
2023-05-23T12:25:56.429Z,3.67
2023-05-23T12:28:37.150Z,3.90
2023-05-23T12:31:12.414Z,4.00
2023-05-23T12:33:48.037Z,3.92
2023-05-23T12:36:26.186Z,4.05
2023-05-23T12:39:05.769Z,4.43
2023-05-23T12:41:39.069Z,3.70
2023-05-23T12:44:16.359Z,3.60
2023-05-23T12:46:49.786Z,3.88
2023-05-23T12:49:23.101Z,4.28
2023-05-23T12:51:56.375Z,5.00
2023-05-23T12:54:30.944Z,4.93
2023-05-23T12:57:04.222Z,4.80
2023-05-23T12:59:37.464Z,4.93
2023-05-23T13:02:11.242Z,4.82
2023-05-23T13:04:44.519Z,4.65
2023-05-23T13:07:18.114Z,4.57
2023-05-23T13:09:52.750Z,5.47
2023-05-23T13:12:26.099Z,5.18
2023-05-23T13:14:59.572Z,6.38
2023-05-23T13:17:33.089Z,4.55
2023-05-23T13:20:08.257Z,4.63
2023-05-23T13:22:41.752Z,5.18
2023-05-23T13:25:16.937Z,5.03
2023-05-23T13:27:50.334Z,5.22
2023-05-23T13:30:24.877Z,4.90
2023-05-23T13:32:58.184Z,5.20
2023-05-23T13:35:31.529Z,4.80
2023-05-23T13:38:04.848Z,4.65
2023-05-23T13:40:39.679Z,5.18
2023-05-23T13:43:13.465Z,5.05
2023-05-23T13:45:47.404Z,4.60
2023-05-23T13:48:20.816Z,5.53
2023-05-23T13:50:54.170Z,5.78
2023-05-23T13:53:27.678Z,4.95
2023-05-23T13:56:03.298Z,4.32
2023-05-23T13:58:36.592Z,4.53
2023-05-23T14:01:10.495Z,4.70
2023-05-23T14:03:43.796Z,4.50
2023-05-23T14:06:17.164Z,4.55
2023-05-23T14:08:50.418Z,4.57
2023-05-23T14:11:25.082Z,4.90
2023-05-23T14:13:58.330Z,4.57
2023-05-23T14:16:31.946Z,5.10
2023-05-23T14:21:38.741Z,4.78
2023-05-23T14:24:12.565Z,4.88
2023-05-23T14:29:20.708Z,5.45
2023-05-23T14:31:54.172Z,4.85
2023-05-23T14:34:27.572Z,5.60
2023-05-23T14:37:01.595Z,4.35
2023-05-23T14:39:35.862Z,4.20
2023-05-23T14:42:10.615Z,4.28
2023-05-23T14:44:44.234Z,4.45
2023-05-23T14:47:17.570Z,4.80
2023-05-23T14:49:50.860Z,4.40
2023-05-23T14:52:24.177Z,4.65
2023-05-23T14:54:57.437Z,4.30
2023-05-23T14:57:32.064Z,4.65
2023-05-23T15:00:06.734Z,4.30
2023-05-23T15:02:40.335Z,3.90
2023-05-23T15:05:13.929Z,3.75
2023-05-23T15:07:47.213Z,4.57
2023-05-23T15:10:20.634Z,4.20
2023-05-23T15:12:55.656Z,4.63
2023-05-23T15:15:37.105Z,4.45
2023-05-23T15:18:11.872Z,4.25
2023-05-23T15:20:45.857Z,4.07
2023-05-23T15:23:19.133Z,4.18
2023-05-23T15:25:52.498Z,3.47
2023-05-23T15:28:27.463Z,3.85
2023-05-23T15:31:01.033Z,5.07
2023-05-23T15:33:34.344Z,4.35
2023-05-23T15:36:08.172Z,4.95
2023-05-23T15:41:14.702Z,4.30
2023-05-23T15:43:49.332Z,4.68
2023-05-23T15:46:22.866Z,4.32
2023-05-23T15:49:03.149Z,4.70
2023-05-23T15:51:43.873Z,4.82
2023-05-23T15:54:17.301Z,4.57
2023-05-23T15:56:50.709Z,4.18
2023-05-23T15:59:25.436Z,4.32
2023-05-23T16:01:59.072Z,4.50
2023-05-23T16:04:32.547Z,4.80
2023-05-23T16:07:06.568Z,4.72
2023-05-23T16:09:40.334Z,5.28
2023-05-23T16:12:13.594Z,4.90
2023-05-23T16:14:48.275Z,4.07
2023-05-23T16:17:21.581Z,4.78
2023-05-23T16:19:55.181Z,4.55
2023-05-23T16:22:28.407Z,3.80
2023-05-23T16:25:01.904Z,3.95
2023-05-23T16:27:35.479Z,4.88
2023-05-23T16:30:11.054Z,4.25
2023-05-23T16:32:44.860Z,5.18
2023-05-23T16:35:18.156Z,4.13
2023-05-23T16:37:51.523Z,4.75
2023-05-23T16:40:24.890Z,4.22
2023-05-23T16:42:58.153Z,5.10
2023-05-23T16:45:32.928Z,4.65
2023-05-23T16:48:06.542Z,4.75
2023-05-23T16:50:40.190Z,4.63
2023-05-23T16:55:47.124Z,4.80
2023-05-23T16:58:21.276Z,4.22
2023-05-23T17:00:56.121Z,4.47
2023-05-23T17:03:29.968Z,4.72
2023-05-23T17:08:36.423Z,4.68
2023-05-23T17:11:09.683Z,4.45
2023-05-23T17:13:43.138Z,5.68
2023-05-23T17:16:20.489Z,4.47
2023-05-23T17:18:54.038Z,4.32
2023-05-23T17:21:27.603Z,4.28
2023-05-23T17:24:00.873Z,4.18
2023-05-23T17:26:34.154Z,4.05
2023-05-23T17:29:07.426Z,4.53
2023-05-23T17:31:42.235Z,4.93
2023-05-23T17:34:16.060Z,4.57
2023-05-23T17:39:22.571Z,4.35
2023-05-23T17:41:55.781Z,4.30
2023-05-23T17:44:29.068Z,3.80
2023-05-23T17:47:03.724Z,4.55
2023-05-23T17:49:38.758Z,5.32
2023-05-23T17:52:14.906Z,6.28
2023-05-23T17:54:48.422Z,6.00
2023-05-23T17:57:21.731Z,5.70
2023-05-23T17:59:55.010Z,5.78
2023-05-23T18:02:29.747Z,6.60
2023-05-23T18:05:03.138Z,5.63
2023-05-23T18:07:36.365Z,5.93
2023-05-23T18:10:10.435Z,5.20
2023-05-23T18:12:43.885Z,5.18
2023-05-23T18:15:17.164Z,5.00
2023-05-23T18:17:55.360Z,5.07
2023-05-23T18:20:28.664Z,5.47
2023-05-23T18:23:02.157Z,5.32
2023-05-23T18:25:35.729Z,6.20
2023-05-23T18:28:08.949Z,5.20
2023-05-23T18:30:42.381Z,5.00
2023-05-23T18:33:17.661Z,4.93
2023-05-23T18:35:52.184Z,6.25
2023-05-23T18:38:25.571Z,5.63
2023-05-23T18:40:58.955Z,4.68
2023-05-23T18:43:32.201Z,5.38
2023-05-23T18:46:05.496Z,6.15
2023-05-23T18:48:40.743Z,6.32
2023-05-23T18:51:14.022Z,5.78
2023-05-23T18:53:47.517Z,6.03
2023-05-23T18:56:23.148Z,5.00
2023-05-23T18:58:56.478Z,6.10
2023-05-23T19:01:29.785Z,6.10
2023-05-23T19:04:04.559Z,5.15
2023-05-23T19:06:37.901Z,5.25
2023-05-23T19:09:11.723Z,6.40
2023-05-23T19:11:45.021Z,5.85
2023-05-23T19:14:18.296Z,6.35
2023-05-23T19:16:51.760Z,5.18
2023-05-23T19:19:28.003Z,5.45
2023-05-23T19:22:03.370Z,6.57
2023-05-23T19:24:37.316Z,5.95
2023-05-23T19:27:10.584Z,5.90
2023-05-23T19:29:44.380Z,5.90
2023-05-23T19:34:52.410Z,5.85
2023-05-23T19:37:25.701Z,6.40
2023-05-23T19:39:59.022Z,5.53
2023-05-23T19:42:32.275Z,6.60
2023-05-23T19:45:06.710Z,6.38
2023-05-23T19:47:40.041Z,6.47
2023-05-23T19:50:14.739Z,6.65
2023-05-23T19:52:48.001Z,5.97
2023-05-23T19:55:21.326Z,6.55
2023-05-23T19:57:54.562Z,6.25
2023-05-23T20:00:28.076Z,7.00
2023-05-23T20:03:02.893Z,7.32
2023-05-23T20:05:37.810Z,6.85
2023-05-23T20:08:11.061Z,7.30
2023-05-23T20:10:44.344Z,7.00
2023-05-23T20:13:17.679Z,6.72
2023-05-23T20:15:51.072Z,7.40
2023-05-23T20:18:24.351Z,7.43
2023-05-23T20:20:58.908Z,7.38
2023-05-23T20:23:32.269Z,6.30
2023-05-23T20:26:06.340Z,7.72
2023-05-23T20:28:40.316Z,6.53
2023-05-23T20:31:13.523Z,6.85
2023-05-23T20:33:46.774Z,6.35
2023-05-23T20:36:21.364Z,7.43
2023-05-23T20:38:54.912Z,7.22
2023-05-23T20:41:29.413Z,7.13
2023-05-23T20:44:02.682Z,7.88
2023-05-23T20:46:36.688Z,7.40
2023-05-23T20:49:10.335Z,7.25
2023-05-23T20:51:44.915Z,7.95
2023-05-23T20:54:18.153Z,6.85
2023-05-23T20:56:53.846Z,7.28
2023-05-23T20:59:30.353Z,7.28
2023-05-23T21:02:03.735Z,8.02
2023-05-23T21:04:37.001Z,6.95
2023-05-23T21:07:13.305Z,7.40
2023-05-23T21:09:46.585Z,7.00
2023-05-23T21:12:19.858Z,7.15
2023-05-23T21:14:53.127Z,7.80
2023-05-23T21:17:26.786Z,7.72
2023-05-23T21:22:34.618Z,7.00
2023-05-23T21:25:08.147Z,7.32
2023-05-23T21:27:42.206Z,7.82
2023-05-23T21:30:15.992Z,8.20
2023-05-23T21:35:22.522Z,8.35
2023-05-23T21:37:57.857Z,8.80
2023-05-23T21:40:31.169Z,7.65
2023-05-23T21:43:04.698Z,8.50
2023-05-23T21:45:37.920Z,8.57
2023-05-23T21:48:11.140Z,8.52
2023-05-23T21:50:44.500Z,9.40
2023-05-23T21:53:19.165Z,8.35
2023-05-23T21:55:52.454Z,8.68
2023-05-23T21:58:25.659Z,8.07
2023-05-23T22:00:58.966Z,8.18
2023-05-23T22:03:32.266Z,8.68
2023-05-23T22:06:06.241Z,8.90
2023-05-23T22:08:42.086Z,8.57
2023-05-23T22:11:15.632Z,8.50
2023-05-23T22:13:48.872Z,8.73
2023-05-23T22:16:22.190Z,9.55
2023-05-23T22:18:58.127Z,9.23
2023-05-23T22:21:31.814Z,8.20
2023-05-23T22:24:15.503Z,8.30
2023-05-23T22:26:48.782Z,8.93
2023-05-23T22:29:22.172Z,9.27
2023-05-23T22:31:55.519Z,8.18
2023-05-23T22:34:29.985Z,9.32
2023-05-23T22:37:03.380Z,8.68
2023-05-23T22:39:37.982Z,9.80
2023-05-23T22:42:11.233Z,8.10
2023-05-23T22:44:44.554Z,8.70
2023-05-23T22:47:18.273Z,9.52
2023-05-23T22:52:27.616Z,8.13
2023-05-23T22:55:02.312Z,8.13
2023-05-23T22:57:35.564Z,8.07
2023-05-23T23:00:11.099Z,8.02
2023-05-23T23:02:44.965Z,9.20
2023-05-23T23:07:52.470Z,9.07
2023-05-23T23:10:27.159Z,8.35
2023-05-23T23:13:00.503Z,8.55
2023-05-23T23:15:33.931Z,8.82
2023-05-23T23:18:07.747Z,8.13
2023-05-23T23:23:15.191Z,9.00
2023-05-23T23:25:52.281Z,8.43
2023-05-23T23:28:25.728Z,8.70
2023-05-23T23:30:59.019Z,8.30
2023-05-23T23:33:32.336Z,8.70
2023-05-23T23:36:06.139Z,8.48
2023-05-23T23:41:13.811Z,7.80
2023-05-23T23:43:47.076Z,8.18
2023-05-23T23:46:20.971Z,8.80
2023-05-23T23:48:54.292Z,9.00
2023-05-23T23:51:27.573Z,8.43
2023-05-23T23:54:01.149Z,8.77
2023-05-23T23:56:36.545Z,9.00
2023-05-23T23:59:09.783Z,9.23
